Řízení letového provozu České republiky
Letiste: LKTB Aktualizace: 24.07.2016 22:08:16  UTC
 METAR LKTB 24.07. 22:00 ...
METAR LKTB 242200Z 34003KT 9999 BKN049 21/18 Q1018 NOSIG RMK REG QNH 1015=
 TAF LKTB 24.07. 17:00 ...
TAF LKTB 241700Z 2418/2524 30003KT CAVOK      PROB30 TEMPO 2418/2421 SHRA SCT030CB BKN040      PROB30 TEMPO 2502/2506 5000 BR BKN016      PROB30 TEMPO 2512/2518 5000 TSRA SCT030CB=